sensor_id;sensor_type;location;lat;lon;timestamp;pressure;altitude;pressure_sealevel;temperature;humidity
62072;BME280;48031;48.542;13.232;2023-01-31T00:02:34;97721.09;;;4.80;79.93
62072;BME280;48031;48.542;13.232;2023-01-31T00:06:40;97704.88;;;5.19;80.15
62072;BME280;48031;48.542;13.232;2023-01-31T00:10:42;97718.19;;;4.81;79.03
62072;BME280;48031;48.542;13.232;2023-01-31T00:14:43;97716.53;;;4.80;77.94
62072;BME280;48031;48.542;13.232;2023-01-31T00:18:46;97728.94;;;4.94;77.74
62072;BME280;48031;48.542;13.232;2023-01-31T00:22:48;97722.31;;;4.97;78.67
62072;BME280;48031;48.542;13.232;2023-01-31T00:26:49;97730.19;;;4.92;78.92
62072;BME280;48031;48.542;13.232;2023-01-31T00:30:59;97757.72;;;4.94;77.79
62072;BME280;48031;48.542;13.232;2023-01-31T00:35:01;97726.22;;;5.14;78.15
62072;BME280;48031;48.542;13.232;2023-01-31T00:39:04;97728.72;;;5.22;77.94
62072;BME280;48031;48.542;13.232;2023-01-31T00:43:06;97733.91;;;5.04;77.63
62072;BME280;48031;48.542;13.232;2023-01-31T00:47:08;97724.34;;;5.34;79.97
62072;BME280;48031;48.542;13.232;2023-01-31T00:51:10;97735.34;;;5.07;77.51
62072;BME280;48031;48.542;13.232;2023-01-31T00:55:12;97714.00;;;5.25;78.80
62072;BME280;48031;48.542;13.232;2023-01-31T00:59:14;97722.31;;;5.10;77.52
62072;BME280;48031;48.542;13.232;2023-01-31T01:03:16;97718.72;;;5.36;78.87
62072;BME280;48031;48.542;13.232;2023-01-31T01:07:18;97733.00;;;5.36;77.05
62072;BME280;48031;48.542;13.232;2023-01-31T01:11:29;97743.44;;;5.91;77.59
62072;BME280;48031;48.542;13.232;2023-01-31T01:15:31;97757.06;;;5.18;76.79
62072;BME280;48031;48.542;13.232;2023-01-31T01:19:33;97743.25;;;5.72;76.27
62072;BME280;48031;48.542;13.232;2023-01-31T01:23:36;97737.91;;;5.59;76.83
62072;BME280;48031;48.542;13.232;2023-01-31T01:27:38;97777.75;;;4.85;72.72
62072;BME280;48031;48.542;13.232;2023-01-31T01:31:40;97738.44;;;5.10;72.67
62072;BME280;48031;48.542;13.232;2023-01-31T01:35:42;97749.84;;;5.06;71.85
62072;BME280;48031;48.542;13.232;2023-01-31T01:39:46;97746.91;;;5.20;72.00
62072;BME280;48031;48.542;13.232;2023-01-31T01:43:54;97706.91;;;5.43;69.95
62072;BME280;48031;48.542;13.232;2023-01-31T01:47:59;97729.28;;;5.44;70.62
62072;BME280;48031;48.542;13.232;2023-01-31T01:52:04;97756.44;;;5.16;70.42
62072;BME280;48031;48.542;13.232;2023-01-31T01:56:15;97740.41;;;5.54;70.19
62072;BME280;48031;48.542;13.232;2023-01-31T02:00:21;97740.47;;;5.34;70.47
62072;BME280;48031;48.542;13.232;2023-01-31T02:04:29;97741.09;;;5.30;69.62
62072;BME280;48031;48.542;13.232;2023-01-31T02:08:33;97739.84;;;5.39;70.11
62072;BME280;48031;48.542;13.232;2023-01-31T02:12:35;97749.00;;;5.18;69.65
62072;BME280;48031;48.542;13.232;2023-01-31T02:16:37;97762.59;;;5.43;68.38
62072;BME280;48031;48.542;13.232;2023-01-31T02:21:15;97743.97;;;6.06;67.76
62072;BME280;48031;48.542;13.232;2023-01-31T02:30:32;97745.09;;;6.30;65.99
62072;BME280;48031;48.542;13.232;2023-01-31T02:48:00;97785.47;;;6.36;65.28
62072;BME280;48031;48.542;13.232;2023-01-31T02:52:17;97788.66;;;6.20;65.68
62072;BME280;48031;48.542;13.232;2023-01-31T02:56:30;97784.19;;;6.07;65.11
62072;BME280;48031;48.542;13.232;2023-01-31T03:00:35;97785.19;;;6.13;65.85
62072;BME280;48031;48.542;13.232;2023-01-31T03:04:37;97777.19;;;5.86;65.93
62072;BME280;48031;48.542;13.232;2023-01-31T03:08:43;97786.25;;;6.12;67.00
62072;BME280;48031;48.542;13.232;2023-01-31T03:21:55;97814.59;;;6.14;65.50
62072;BME280;48031;48.542;13.232;2023-01-31T03:25:59;97831.47;;;5.83;66.20
62072;BME280;48031;48.542;13.232;2023-01-31T03:30:29;97836.97;;;6.97;62.56
62072;BME280;48031;48.542;13.232;2023-01-31T03:34:33;97834.59;;;5.80;64.48
62072;BME280;48031;48.542;13.232;2023-01-31T03:38:47;97851.31;;;6.09;64.23
62072;BME280;48031;48.542;13.232;2023-01-31T03:42:58;97840.28;;;6.23;63.87
62072;BME280;48031;48.542;13.232;2023-01-31T03:47:11;97855.28;;;6.00;64.16
62072;BME280;48031;48.542;13.232;2023-01-31T03:51:22;97864.59;;;6.10;63.74
62072;BME280;48031;48.542;13.232;2023-01-31T03:55:30;97835.41;;;6.01;64.58
62072;BME280;48031;48.542;13.232;2023-01-31T03:59:37;97830.34;;;6.24;63.27
62072;BME280;48031;48.542;13.232;2023-01-31T04:03:53;97831.31;;;6.36;63.72
62072;BME280;48031;48.542;13.232;2023-01-31T04:07:57;97842.22;;;5.97;63.87
62072;BME280;48031;48.542;13.232;2023-01-31T04:12:02;97849.72;;;5.88;63.61
62072;BME280;48031;48.542;13.232;2023-01-31T04:16:04;97887.47;;;5.68;64.07
62072;BME280;48031;48.542;13.232;2023-01-31T04:20:07;97860.84;;;6.11;63.06
62072;BME280;48031;48.542;13.232;2023-01-31T04:24:11;97874.78;;;5.95;63.82
62072;BME280;48031;48.542;13.232;2023-01-31T04:28:13;97879.16;;;5.96;63.21
62072;BME280;48031;48.542;13.232;2023-01-31T04:32:15;97878.72;;;5.93;63.88
62072;BME280;48031;48.542;13.232;2023-01-31T04:36:17;97894.06;;;5.99;63.44
62072;BME280;48031;48.542;13.232;2023-01-31T04:40:19;97897.59;;;5.79;64.01
62072;BME280;48031;48.542;13.232;2023-01-31T04:44:22;97899.66;;;5.84;63.39
62072;BME280;48031;48.542;13.232;2023-01-31T04:48:24;97906.06;;;5.76;63.34
62072;BME280;48031;48.542;13.232;2023-01-31T04:52:26;97903.78;;;5.80;63.29
62072;BME280;48031;48.542;13.232;2023-01-31T04:56:27;97898.19;;;5.75;63.46
62072;BME280;48031;48.542;13.232;2023-01-31T05:00:29;97911.25;;;5.91;62.56
62072;BME280;48031;48.542;13.232;2023-01-31T05:04:32;97907.72;;;5.84;63.27
62072;BME280;48031;48.542;13.232;2023-01-31T05:08:34;97917.69;;;5.70;62.66
62072;BME280;48031;48.542;13.232;2023-01-31T05:12:37;97907.53;;;5.92;62.27
62072;BME280;48031;48.542;13.232;2023-01-31T05:16:39;97913.97;;;5.71;63.29
62072;BME280;48031;48.542;13.232;2023-01-31T05:20:41;97904.44;;;5.56;62.69
62072;BME280;48031;48.542;13.232;2023-01-31T05:24:44;97925.16;;;5.62;63.02
62072;BME280;48031;48.542;13.232;2023-01-31T05:28:46;97927.22;;;5.53;62.80
62072;BME280;48031;48.542;13.232;2023-01-31T05:32:48;97918.50;;;5.64;62.66
62072;BME280;48031;48.542;13.232;2023-01-31T05:36:54;97901.94;;;6.00;62.22
62072;BME280;48031;48.542;13.232;2023-01-31T05:40:56;97935.09;;;5.61;61.97
62072;BME280;48031;48.542;13.232;2023-01-31T05:44:58;97917.28;;;5.73;62.01
62072;BME280;48031;48.542;13.232;2023-01-31T05:49:00;97921.00;;;5.59;62.30
62072;BME280;48031;48.542;13.232;2023-01-31T05:53:02;97928.47;;;5.57;62.16
62072;BME280;48031;48.542;13.232;2023-01-31T05:57:04;97936.53;;;5.70;61.86
62072;BME280;48031;48.542;13.232;2023-01-31T06:01:07;97953.75;;;5.56;62.36
62072;BME280;48031;48.542;13.232;2023-01-31T06:05:09;97949.59;;;5.60;62.89
62072;BME280;48031;48.542;13.232;2023-01-31T06:09:11;97959.72;;;5.58;61.79
62072;BME280;48031;48.542;13.232;2023-01-31T06:13:13;97954.97;;;5.60;61.54
62072;BME280;48031;48.542;13.232;2023-01-31T06:17:15;97968.44;;;5.67;61.71
62072;BME280;48031;48.542;13.232;2023-01-31T06:21:17;97959.91;;;5.37;62.19
62072;BME280;48031;48.542;13.232;2023-01-31T06:25:19;97959.94;;;5.63;61.92
62072;BME280;48031;48.542;13.232;2023-01-31T06:29:21;97946.91;;;5.67;61.57
62072;BME280;48031;48.542;13.232;2023-01-31T06:33:23;97973.81;;;5.47;61.99
62072;BME280;48031;48.542;13.232;2023-01-31T06:37:45;97983.75;;;5.60;61.17
62072;BME280;48031;48.542;13.232;2023-01-31T06:41:46;97966.59;;;5.67;62.03
62072;BME280;48031;48.542;13.232;2023-01-31T06:45:48;97976.72;;;5.46;62.09
62072;BME280;48031;48.542;13.232;2023-01-31T06:49:51;97998.25;;;5.59;61.89
62072;BME280;48031;48.542;13.232;2023-01-31T06:53:52;98013.38;;;5.53;62.15
62072;BME280;48031;48.542;13.232;2023-01-31T06:57:57;98015.03;;;5.54;61.42
62072;BME280;48031;48.542;13.232;2023-01-31T07:01:59;97999.28;;;5.58;61.83
62072;BME280;48031;48.542;13.232;2023-01-31T07:06:01;98013.19;;;5.68;61.02
62072;BME280;48031;48.542;13.232;2023-01-31T07:10:04;98022.09;;;5.81;60.70
62072;BME280;48031;48.542;13.232;2023-01-31T07:14:07;98020.66;;;5.72;61.40
62072;BME280;48031;48.542;13.232;2023-01-31T07:18:09;98037.66;;;5.79;61.23
62072;BME280;48031;48.542;13.232;2023-01-31T07:22:13;98021.03;;;5.56;61.51
62072;BME280;48031;48.542;13.232;2023-01-31T07:26:15;98011.72;;;5.59;62.13
62072;BME280;48031;48.542;13.232;2023-01-31T07:30:17;98022.09;;;5.81;61.04
62072;BME280;48031;48.542;13.232;2023-01-31T07:34:19;98025.81;;;5.80;60.98
62072;BME280;48031;48.542;13.232;2023-01-31T07:38:23;98026.03;;;5.79;61.04
62072;BME280;48031;48.542;13.232;2023-01-31T07:42:27;98025.66;;;6.02;60.93
62072;BME280;48031;48.542;13.232;2023-01-31T07:46:28;98024.97;;;5.80;61.02
62072;BME280;48031;48.542;13.232;2023-01-31T07:50:30;98037.25;;;5.89;60.40
62072;BME280;48031;48.542;13.232;2023-01-31T07:54:32;98043.63;;;5.75;60.78
62072;BME280;48031;48.542;13.232;2023-01-31T07:58:34;98035.31;;;5.63;60.43
62072;BME280;48031;48.542;13.232;2023-01-31T08:02:36;98043.22;;;5.78;60.52
62072;BME280;48031;48.542;13.232;2023-01-31T08:06:57;98065.19;;;5.75;60.81
62072;BME280;48031;48.542;13.232;2023-01-31T08:11:00;98077.19;;;5.66;60.67
62072;BME280;48031;48.542;13.232;2023-01-31T08:15:02;98078.94;;;6.00;60.17
62072;BME280;48031;48.542;13.232;2023-01-31T08:19:04;98062.53;;;5.88;60.33
62072;BME280;48031;48.542;13.232;2023-01-31T08:23:06;98067.75;;;6.22;59.63
62072;BME280;48031;48.542;13.232;2023-01-31T08:27:08;98077.91;;;6.07;59.53
62072;BME280;48031;48.542;13.232;2023-01-31T08:31:18;98061.69;;;6.53;59.19
62072;BME280;48031;48.542;13.232;2023-01-31T08:35:21;98075.22;;;6.07;59.00
62072;BME280;48031;48.542;13.232;2023-01-31T08:39:23;98067.25;;;6.58;58.74
62072;BME280;48031;48.542;13.232;2023-01-31T08:43:24;98068.34;;;6.57;58.45
62072;BME280;48031;48.542;13.232;2023-01-31T08:47:26;98064.81;;;6.44;57.62
62072;BME280;48031;48.542;13.232;2023-01-31T08:51:28;98075.38;;;6.25;58.22
62072;BME280;48031;48.542;13.232;2023-01-31T08:55:33;98088.00;;;6.78;57.83
62072;BME280;48031;48.542;13.232;2023-01-31T08:59:35;98081.41;;;6.41;57.96
62072;BME280;48031;48.542;13.232;2023-01-31T09:03:38;98090.31;;;6.54;58.29
62072;BME280;48031;48.542;13.232;2023-01-31T09:07:40;98109.19;;;6.41;57.72
62072;BME280;48031;48.542;13.232;2023-01-31T09:11:42;98090.25;;;6.81;57.52
62072;BME280;48031;48.542;13.232;2023-01-31T09:15:44;98096.66;;;6.99;57.22
62072;BME280;48031;48.542;13.232;2023-01-31T09:19:46;98102.50;;;6.90;57.18
62072;BME280;48031;48.542;13.232;2023-01-31T09:23:54;98102.44;;;7.03;56.96
62072;BME280;48031;48.542;13.232;2023-01-31T09:27:56;98093.19;;;6.73;56.59
62072;BME280;48031;48.542;13.232;2023-01-31T09:31:58;98099.50;;;7.18;55.10
62072;BME280;48031;48.542;13.232;2023-01-31T09:36:03;98095.81;;;6.99;56.22
62072;BME280;48031;48.542;13.232;2023-01-31T09:40:05;98101.53;;;7.29;55.61
62072;BME280;48031;48.542;13.232;2023-01-31T09:44:18;98109.47;;;7.10;56.28
62072;BME280;48031;48.542;13.232;2023-01-31T09:48:24;98106.56;;;7.19;55.93
62072;BME280;48031;48.542;13.232;2023-01-31T09:52:27;98087.22;;;7.22;55.37
62072;BME280;48031;48.542;13.232;2023-01-31T09:56:41;98093.41;;;7.35;55.66
62072;BME280;48031;48.542;13.232;2023-01-31T10:01:01;98091.56;;;7.29;55.42
62072;BME280;48031;48.542;13.232;2023-01-31T10:05:25;98085.22;;;7.48;55.18
62072;BME280;48031;48.542;13.232;2023-01-31T10:13:54;98090.06;;;7.40;54.02
62072;BME280;48031;48.542;13.232;2023-01-31T10:18:01;98082.31;;;7.05;54.11
62072;BME280;48031;48.542;13.232;2023-01-31T10:22:09;98069.16;;;7.22;53.81
62072;BME280;48031;48.542;13.232;2023-01-31T10:30:27;98050.81;;;7.37;52.79
62072;BME280;48031;48.542;13.232;2023-01-31T10:34:39;98065.03;;;7.58;51.90
62072;BME280;48031;48.542;13.232;2023-01-31T10:39:04;98040.06;;;7.93;50.75
62072;BME280;48031;48.542;13.232;2023-01-31T10:47:18;98017.66;;;7.86;49.66
62072;BME280;48031;48.542;13.232;2023-01-31T10:51:41;98038.94;;;8.32;48.95
62072;BME280;48031;48.542;13.232;2023-01-31T10:56:03;98022.34;;;7.98;49.46
62072;BME280;48031;48.542;13.232;2023-01-31T11:00:10;98015.91;;;7.36;49.82
62072;BME280;48031;48.542;13.232;2023-01-31T11:04:38;98011.97;;;8.19;49.31
62072;BME280;48031;48.542;13.232;2023-01-31T11:08:48;98002.72;;;7.84;50.21
62072;BME280;48031;48.542;13.232;2023-01-31T11:12:56;97985.22;;;7.86;49.89
62072;BME280;48031;48.542;13.232;2023-01-31T11:17:21;98008.00;;;8.22;48.33
62072;BME280;48031;48.542;13.232;2023-01-31T11:21:25;98009.44;;;7.43;49.30
62072;BME280;48031;48.542;13.232;2023-01-31T11:25:30;97998.63;;;7.43;48.86
62072;BME280;48031;48.542;13.232;2023-01-31T11:29:35;97997.06;;;7.61;49.18
62072;BME280;48031;48.542;13.232;2023-01-31T11:37:50;98010.13;;;7.32;48.91
62072;BME280;48031;48.542;13.232;2023-01-31T11:41:54;97996.78;;;7.37;48.30
62072;BME280;48031;48.542;13.232;2023-01-31T11:45:58;97986.28;;;7.54;47.65
62072;BME280;48031;48.542;13.232;2023-01-31T11:50:01;97971.16;;;8.03;47.72
62072;BME280;48031;48.542;13.232;2023-01-31T11:54:03;97966.47;;;7.91;47.30
62072;BME280;48031;48.542;13.232;2023-01-31T11:58:16;97961.00;;;8.23;46.67
62072;BME280;48031;48.542;13.232;2023-01-31T12:02:44;97966.06;;;8.38;46.21
62072;BME280;48031;48.542;13.232;2023-01-31T12:07:01;97925.94;;;8.71;46.06
62072;BME280;48031;48.542;13.232;2023-01-31T12:11:17;97919.41;;;8.42;45.84
62072;BME280;48031;48.542;13.232;2023-01-31T12:15:25;97920.56;;;8.10;46.49
62072;BME280;48031;48.542;13.232;2023-01-31T12:58:53;97908.16;;;8.20;46.90
62072;BME280;48031;48.542;13.232;2023-01-31T13:08:11;97897.59;;;8.19;47.26
62072;BME280;48031;48.542;13.232;2023-01-31T13:12:20;97891.28;;;8.07;47.74
62072;BME280;48031;48.542;13.232;2023-01-31T13:16:38;97898.16;;;8.46;46.40
62072;BME280;48031;48.542;13.232;2023-01-31T13:20:56;97865.06;;;8.92;45.78
62072;BME280;48031;48.542;13.232;2023-01-31T13:25:12;97876.47;;;8.27;47.35
62072;BME280;48031;48.542;13.232;2023-01-31T13:29:19;97892.19;;;8.55;46.93
62072;BME280;48031;48.542;13.232;2023-01-31T13:33:39;97903.66;;;7.96;47.72
62072;BME280;48031;48.542;13.232;2023-01-31T13:37:43;97883.50;;;7.74;48.58
62072;BME280;48031;48.542;13.232;2023-01-31T13:41:47;97882.31;;;7.88;47.92
62072;BME280;48031;48.542;13.232;2023-01-31T13:46:04;97873.91;;;8.14;47.38
62072;BME280;48031;48.542;13.232;2023-01-31T13:54:56;97887.25;;;7.73;48.85
62072;BME280;48031;48.542;13.232;2023-01-31T13:59:00;97883.34;;;7.44;49.40
62072;BME280;48031;48.542;13.232;2023-01-31T14:15:48;97854.66;;;7.86;46.94
62072;BME280;48031;48.542;13.232;2023-01-31T14:23:52;97827.50;;;7.81;47.75
62072;BME280;48031;48.542;13.232;2023-01-31T14:31:56;97837.47;;;7.62;48.16
62072;BME280;48031;48.542;13.232;2023-01-31T14:36:26;97828.41;;;8.29;47.21
62072;BME280;48031;48.542;13.232;2023-01-31T14:53:53;97815.47;;;7.59;47.52
62072;BME280;48031;48.542;13.232;2023-01-31T14:58:00;97818.16;;;7.59;47.92
62072;BME280;48031;48.542;13.232;2023-01-31T15:06:36;97821.63;;;7.66;48.29
62072;BME280;48031;48.542;13.232;2023-01-31T15:15:03;97827.31;;;7.08;48.45
62072;BME280;48031;48.542;13.232;2023-01-31T15:19:19;97822.16;;;7.31;48.99
62072;BME280;48031;48.542;13.232;2023-01-31T15:23:29;97817.69;;;7.43;48.97
62072;BME280;48031;48.542;13.232;2023-01-31T15:27:34;97812.75;;;7.59;48.48
62072;BME280;48031;48.542;13.232;2023-01-31T15:31:42;97826.63;;;7.19;49.49
62072;BME280;48031;48.542;13.232;2023-01-31T15:35:52;97810.53;;;7.31;49.79
62072;BME280;48031;48.542;13.232;2023-01-31T15:39:59;97837.09;;;7.09;49.88
62072;BME280;48031;48.542;13.232;2023-01-31T15:44:11;97836.59;;;7.43;49.81
62072;BME280;48031;48.542;13.232;2023-01-31T15:48:20;97823.72;;;7.45;49.64
62072;BME280;48031;48.542;13.232;2023-01-31T15:52:22;97843.97;;;6.74;50.52
62072;BME280;48031;48.542;13.232;2023-01-31T15:56:25;97829.31;;;7.19;50.29
62072;BME280;48031;48.542;13.232;2023-01-31T16:00:30;97844.22;;;7.28;50.41
62072;BME280;48031;48.542;13.232;2023-01-31T16:04:33;97808.72;;;7.00;50.84
62072;BME280;48031;48.542;13.232;2023-01-31T16:08:37;97796.19;;;7.30;51.02
62072;BME280;48031;48.542;13.232;2023-01-31T16:12:45;97828.06;;;7.22;51.62
62072;BME280;48031;48.542;13.232;2023-01-31T16:16:50;97829.78;;;7.16;51.22
62072;BME280;48031;48.542;13.232;2023-01-31T16:20:54;97780.25;;;7.04;51.55
62072;BME280;48031;48.542;13.232;2023-01-31T16:24:59;97803.66;;;7.10;52.95
62072;BME280;48031;48.542;13.232;2023-01-31T16:29:12;97789.34;;;6.85;54.20
62072;BME280;48031;48.542;13.232;2023-01-31T16:33:16;97790.44;;;6.71;54.49
62072;BME280;48031;48.542;13.232;2023-01-31T16:37:29;97797.16;;;7.18;53.51
62072;BME280;48031;48.542;13.232;2023-01-31T16:41:51;97790.88;;;7.24;53.43
62072;BME280;48031;48.542;13.232;2023-01-31T16:46:16;97801.50;;;6.94;54.30
62072;BME280;48031;48.542;13.232;2023-01-31T16:54:30;97814.16;;;6.62;54.20
62072;BME280;48031;48.542;13.232;2023-01-31T17:02:51;97822.72;;;7.15;54.07
62072;BME280;48031;48.542;13.232;2023-01-31T17:07:02;97822.25;;;7.43;52.99
62072;BME280;48031;48.542;13.232;2023-01-31T17:11:08;97818.59;;;6.81;54.19
62072;BME280;48031;48.542;13.232;2023-01-31T17:15:19;97813.94;;;7.20;53.64
62072;BME280;48031;48.542;13.232;2023-01-31T17:19:21;97830.50;;;6.98;53.63
62072;BME280;48031;48.542;13.232;2023-01-31T17:23:23;97831.09;;;6.76;53.75
62072;BME280;48031;48.542;13.232;2023-01-31T17:27:25;97826.69;;;6.81;53.90
62072;BME280;48031;48.542;13.232;2023-01-31T17:31:27;97831.69;;;7.09;53.03
62072;BME280;48031;48.542;13.232;2023-01-31T17:39:34;97826.84;;;6.86;53.75
62072;BME280;48031;48.542;13.232;2023-01-31T17:43:36;97829.97;;;6.90;53.36
62072;BME280;48031;48.542;13.232;2023-01-31T17:47:38;97819.88;;;6.79;53.94
62072;BME280;48031;48.542;13.232;2023-01-31T17:51:39;97830.47;;;7.05;53.16
62072;BME280;48031;48.542;13.232;2023-01-31T17:55:42;97806.25;;;7.23;53.22
62072;BME280;48031;48.542;13.232;2023-01-31T17:59:44;97808.09;;;6.98;53.32
62072;BME280;48031;48.542;13.232;2023-01-31T18:03:46;97802.88;;;7.03;53.98
62072;BME280;48031;48.542;13.232;2023-01-31T18:07:48;97816.16;;;7.04;54.16
62072;BME280;48031;48.542;13.232;2023-01-31T18:11:50;97805.72;;;7.08;53.35
62072;BME280;48031;48.542;13.232;2023-01-31T18:16:01;97812.06;;;7.20;54.40
62072;BME280;48031;48.542;13.232;2023-01-31T18:20:03;97798.91;;;7.05;53.87
62072;BME280;48031;48.542;13.232;2023-01-31T18:24:05;97807.50;;;6.96;54.49
62072;BME280;48031;48.542;13.232;2023-01-31T18:28:08;97819.25;;;6.77;55.14
62072;BME280;48031;48.542;13.232;2023-01-31T18:32:10;97822.25;;;6.62;56.23
62072;BME280;48031;48.542;13.232;2023-01-31T18:36:14;97817.91;;;6.61;57.83
62072;BME280;48031;48.542;13.232;2023-01-31T18:40:16;97810.38;;;6.69;57.43
62072;BME280;48031;48.542;13.232;2023-01-31T18:44:18;97812.38;;;6.49;58.02
62072;BME280;48031;48.542;13.232;2023-01-31T18:48:20;97822.50;;;6.54;58.51
62072;BME280;48031;48.542;13.232;2023-01-31T18:52:22;97830.00;;;6.52;58.31
62072;BME280;48031;48.542;13.232;2023-01-31T18:56:24;97819.09;;;6.72;58.49
62072;BME280;48031;48.542;13.232;2023-01-31T19:00:26;97828.19;;;6.39;58.76
62072;BME280;48031;48.542;13.232;2023-01-31T19:04:28;97831.94;;;6.32;58.78
62072;BME280;48031;48.542;13.232;2023-01-31T19:08:30;97831.31;;;6.36;59.35
62072;BME280;48031;48.542;13.232;2023-01-31T19:12:31;97818.09;;;6.28;59.33
62072;BME280;48031;48.542;13.232;2023-01-31T19:16:36;97810.81;;;6.66;59.25
62072;BME280;48031;48.542;13.232;2023-01-31T19:20:40;97811.13;;;6.52;59.01
62072;BME280;48031;48.542;13.232;2023-01-31T19:24:42;97813.22;;;6.43;58.02
62072;BME280;48031;48.542;13.232;2023-01-31T19:28:44;97825.28;;;6.79;57.53
62072;BME280;48031;48.542;13.232;2023-01-31T19:32:47;97821.81;;;6.65;57.53
62072;BME280;48031;48.542;13.232;2023-01-31T19:36:48;97817.31;;;6.90;58.34
62072;BME280;48031;48.542;13.232;2023-01-31T19:40:50;97818.94;;;6.91;57.72
62072;BME280;48031;48.542;13.232;2023-01-31T19:44:52;97818.91;;;6.66;58.05
62072;BME280;48031;48.542;13.232;2023-01-31T19:48:54;97817.72;;;6.87;58.89
62072;BME280;48031;48.542;13.232;2023-01-31T19:52:56;97815.75;;;6.69;58.88
62072;BME280;48031;48.542;13.232;2023-01-31T19:56:58;97814.16;;;6.62;59.38
62072;BME280;48031;48.542;13.232;2023-01-31T20:01:03;97815.25;;;6.86;59.37
62072;BME280;48031;48.542;13.232;2023-01-31T20:05:05;97811.84;;;6.65;60.09
62072;BME280;48031;48.542;13.232;2023-01-31T20:09:08;97804.97;;;6.69;60.65
62072;BME280;48031;48.542;13.232;2023-01-31T20:13:10;97801.44;;;6.38;61.23
62072;BME280;48031;48.542;13.232;2023-01-31T20:17:12;97816.91;;;6.11;62.15
62072;BME280;48031;48.542;13.232;2023-01-31T20:21:16;97789.66;;;6.63;62.12
62072;BME280;48031;48.542;13.232;2023-01-31T20:25:18;97797.19;;;6.55;63.45
62072;BME280;48031;48.542;13.232;2023-01-31T20:29:20;97794.69;;;6.22;63.07
62072;BME280;48031;48.542;13.232;2023-01-31T20:33:22;97813.78;;;6.14;63.46
62072;BME280;48031;48.542;13.232;2023-01-31T20:37:24;97816.13;;;6.42;62.44
62072;BME280;48031;48.542;13.232;2023-01-31T20:41:26;97809.81;;;6.61;62.83
62072;BME280;48031;48.542;13.232;2023-01-31T20:45:28;97817.00;;;6.36;62.41
62072;BME280;48031;48.542;13.232;2023-01-31T20:49:31;97813.06;;;6.69;60.90
62072;BME280;48031;48.542;13.232;2023-01-31T20:53:33;97806.91;;;6.62;61.25
62072;BME280;48031;48.542;13.232;2023-01-31T20:57:35;97809.13;;;6.41;61.31
62072;BME280;48031;48.542;13.232;2023-01-31T21:01:37;97795.75;;;6.84;59.89
62072;BME280;48031;48.542;13.232;2023-01-31T21:05:40;97810.16;;;6.71;60.40
62072;BME280;48031;48.542;13.232;2023-01-31T21:09:41;97794.00;;;6.64;59.54
62072;BME280;48031;48.542;13.232;2023-01-31T21:13:43;97796.28;;;6.67;59.00
62072;BME280;48031;48.542;13.232;2023-01-31T21:17:45;97804.56;;;6.73;58.49
62072;BME280;48031;48.542;13.232;2023-01-31T21:21:47;97790.75;;;6.56;59.06
62072;BME280;48031;48.542;13.232;2023-01-31T21:25:48;97781.84;;;6.55;58.74
62072;BME280;48031;48.542;13.232;2023-01-31T21:29:50;97790.06;;;6.67;58.16
62072;BME280;48031;48.542;13.232;2023-01-31T21:33:52;97795.63;;;6.72;57.57
62072;BME280;48031;48.542;13.232;2023-01-31T21:37:54;97788.78;;;6.69;57.50
62072;BME280;48031;48.542;13.232;2023-01-31T21:41:56;97776.44;;;6.87;57.20
62072;BME280;48031;48.542;13.232;2023-01-31T21:46:15;97770.50;;;6.78;56.75
62072;BME280;48031;48.542;13.232;2023-01-31T21:50:17;97761.63;;;6.96;56.41
62072;BME280;48031;48.542;13.232;2023-01-31T21:54:20;97766.25;;;6.89;56.79
62072;BME280;48031;48.542;13.232;2023-01-31T21:58:22;97751.16;;;7.06;56.37
62072;BME280;48031;48.542;13.232;2023-01-31T22:02:23;97760.19;;;7.18;55.97
62072;BME280;48031;48.542;13.232;2023-01-31T22:06:28;97775.44;;;7.31;56.27
62072;BME280;48031;48.542;13.232;2023-01-31T22:10:34;97772.44;;;6.96;56.68
62072;BME280;48031;48.542;13.232;2023-01-31T22:14:35;97766.59;;;7.24;56.20
62072;BME280;48031;48.542;13.232;2023-01-31T22:18:39;97753.47;;;7.27;56.56
62072;BME280;48031;48.542;13.232;2023-01-31T22:22:41;97788.72;;;6.83;58.04
62072;BME280;48031;48.542;13.232;2023-01-31T22:26:44;97784.22;;;6.70;62.43
62072;BME280;48031;48.542;13.232;2023-01-31T22:30:56;97773.31;;;6.90;62.42
62072;BME280;48031;48.542;13.232;2023-01-31T22:34:58;97749.78;;;6.72;62.50
62072;BME280;48031;48.542;13.232;2023-01-31T22:39:00;97749.22;;;6.63;61.79
62072;BME280;48031;48.542;13.232;2023-01-31T22:43:02;97756.72;;;6.61;61.80
62072;BME280;48031;48.542;13.232;2023-01-31T22:47:04;97749.50;;;6.80;61.19
62072;BME280;48031;48.542;13.232;2023-01-31T22:51:10;97756.78;;;6.80;60.25
62072;BME280;48031;48.542;13.232;2023-01-31T22:55:12;97744.38;;;6.72;59.77
62072;BME280;48031;48.542;13.232;2023-01-31T22:59:14;97745.16;;;6.79;59.76
62072;BME280;48031;48.542;13.232;2023-01-31T23:03:15;97745.22;;;6.97;58.88
62072;BME280;48031;48.542;13.232;2023-01-31T23:07:17;97755.00;;;6.92;58.51
62072;BME280;48031;48.542;13.232;2023-01-31T23:11:19;97755.69;;;6.87;58.42
62072;BME280;48031;48.542;13.232;2023-01-31T23:15:21;97741.03;;;7.01;58.01
62072;BME280;48031;48.542;13.232;2023-01-31T23:19:23;97734.44;;;6.73;58.61
62072;BME280;48031;48.542;13.232;2023-01-31T23:23:25;97742.50;;;6.97;58.67
62072;BME280;48031;48.542;13.232;2023-01-31T23:27:27;97739.66;;;6.92;58.16
62072;BME280;48031;48.542;13.232;2023-01-31T23:31:28;97730.88;;;6.97;58.25
62072;BME280;48031;48.542;13.232;2023-01-31T23:35:33;97747.78;;;6.86;58.17
62072;BME280;48031;48.542;13.232;2023-01-31T23:39:34;97733.88;;;7.32;57.31
62072;BME280;48031;48.542;13.232;2023-01-31T23:43:36;97739.16;;;7.02;57.83
62072;BME280;48031;48.542;13.232;2023-01-31T23:47:38;97751.28;;;6.93;57.99
62072;BME280;48031;48.542;13.232;2023-01-31T23:51:43;97732.94;;;7.01;57.92
62072;BME280;48031;48.542;13.232;2023-01-31T23:55:45;97736.00;;;6.80;59.73
62072;BME280;48031;48.542;13.232;2023-01-31T23:59:47;97733.00;;;6.95;59.79
